sensor_id;sensor_type;location;lat;lon;timestamp;pressure;altitude;pressure_sealevel;temperature;humidity
45991;BME280;31721;41.740;-88.000;2023-04-02T00:01:46;99086.99;;;1.91;51.75
45991;BME280;31721;41.740;-88.000;2023-04-02T00:04:17;99092.34;;;1.99;51.94
45991;BME280;31721;41.740;-88.000;2023-04-02T00:06:46;99092.50;;;1.64;51.72
45991;BME280;31721;41.740;-88.000;2023-04-02T00:09:23;99091.87;;;1.16;51.77
45991;BME280;31721;41.740;-88.000;2023-04-02T00:11:53;99099.06;;;1.48;52.29
45991;BME280;31721;41.740;-88.000;2023-04-02T00:14:24;99097.46;;;1.75;52.36
45991;BME280;31721;41.740;-88.000;2023-04-02T00:16:54;99102.16;;;1.97;52.32
45991;BME280;31721;41.740;-88.000;2023-04-02T00:19:29;99120.30;;;1.68;51.09
45991;BME280;31721;41.740;-88.000;2023-04-02T00:21:58;99118.71;;;1.97;52.22
45991;BME280;31721;41.740;-88.000;2023-04-02T00:24:27;99110.27;;;1.81;51.38
45991;BME280;31721;41.740;-88.000;2023-04-02T00:26:55;99110.86;;;1.58;52.30
45991;BME280;31721;41.740;-88.000;2023-04-02T00:29:23;99118.05;;;1.72;51.34
45991;BME280;31721;41.740;-88.000;2023-04-02T00:31:52;99119.94;;;1.66;51.85
45991;BME280;31721;41.740;-88.000;2023-04-02T00:34:26;99126.68;;;2.08;52.28
45991;BME280;31721;41.740;-88.000;2023-04-02T00:36:55;99133.56;;;2.02;51.46
45991;BME280;31721;41.740;-88.000;2023-04-02T00:39:25;99137.52;;;1.91;50.64
45991;BME280;31721;41.740;-88.000;2023-04-02T00:41:55;99142.54;;;1.73;50.37
45991;BME280;31721;41.740;-88.000;2023-04-02T00:44:23;99139.92;;;1.82;51.29
45991;BME280;31721;41.740;-88.000;2023-04-02T00:46:55;99139.65;;;1.74;50.71
45991;BME280;31721;41.740;-88.000;2023-04-02T00:49:30;99145.73;;;1.74;50.72
45991;BME280;31721;41.740;-88.000;2023-04-02T00:52:03;99151.33;;;1.81;51.81
45991;BME280;31721;41.740;-88.000;2023-04-02T00:54:37;99153.51;;;2.06;51.98
45991;BME280;31721;41.740;-88.000;2023-04-02T00:57:14;99159.90;;;2.37;51.91
45991;BME280;31721;41.740;-88.000;2023-04-02T00:59:52;99163.31;;;2.41;51.74
45991;BME280;31721;41.740;-88.000;2023-04-02T01:02:26;99177.57;;;2.40;51.61
45991;BME280;31721;41.740;-88.000;2023-04-02T01:04:56;99173.45;;;2.42;51.32
45991;BME280;31721;41.740;-88.000;2023-04-02T01:07:39;99173.26;;;2.40;49.61
45991;BME280;31721;41.740;-88.000;2023-04-02T01:10:24;99172.40;;;2.48;51.41
45991;BME280;31721;41.740;-88.000;2023-04-02T01:13:03;99176.18;;;2.82;51.68
45991;BME280;31721;41.740;-88.000;2023-04-02T01:15:40;99175.83;;;2.74;51.25
45991;BME280;31721;41.740;-88.000;2023-04-02T01:18:34;99185.40;;;2.71;51.19
45991;BME280;31721;41.740;-88.000;2023-04-02T01:21:16;99186.67;;;2.96;51.47
45991;BME280;31721;41.740;-88.000;2023-04-02T01:24:01;99195.12;;;3.20;51.47
45991;BME280;31721;41.740;-88.000;2023-04-02T01:26:41;99192.39;;;3.11;51.13
45991;BME280;31721;41.740;-88.000;2023-04-02T01:29:12;99191.76;;;3.26;51.50
45991;BME280;31721;41.740;-88.000;2023-04-02T01:31:42;99193.74;;;3.36;51.30
45991;BME280;31721;41.740;-88.000;2023-04-02T01:34:14;99198.92;;;3.44;51.16
45991;BME280;31721;41.740;-88.000;2023-04-02T01:37:24;99193.24;;;3.44;51.27
45991;BME280;31721;41.740;-88.000;2023-04-02T01:40:11;99195.22;;;3.62;50.78
45991;BME280;31721;41.740;-88.000;2023-04-02T01:42:48;99187.52;;;3.67;50.64
45991;BME280;31721;41.740;-88.000;2023-04-02T01:45:20;99188.27;;;3.79;50.85
45991;BME280;31721;41.740;-88.000;2023-04-02T01:47:50;99198.02;;;3.76;50.84
45991;BME280;31721;41.740;-88.000;2023-04-02T01:50:24;99200.72;;;3.80;50.87
45991;BME280;31721;41.740;-88.000;2023-04-02T01:52:55;99199.01;;;3.81;50.64
45991;BME280;31721;41.740;-88.000;2023-04-02T01:55:30;99207.22;;;3.89;50.48
45991;BME280;31721;41.740;-88.000;2023-04-02T01:58:00;99211.85;;;3.92;50.55
45991;BME280;31721;41.740;-88.000;2023-04-02T02:00:28;99215.02;;;3.90;50.45
45991;BME280;31721;41.740;-88.000;2023-04-02T02:02:59;99233.44;;;3.88;50.27
45991;BME280;31721;41.740;-88.000;2023-04-02T02:05:28;99241.82;;;3.84;50.10
45991;BME280;31721;41.740;-88.000;2023-04-02T02:07:57;99247.42;;;3.91;50.08
45991;BME280;31721;41.740;-88.000;2023-04-02T02:10:28;99255.59;;;3.82;50.15
45991;BME280;31721;41.740;-88.000;2023-04-02T02:12:57;99256.71;;;3.73;50.08
45991;BME280;31721;41.740;-88.000;2023-04-02T02:15:25;99259.71;;;3.55;50.29
45991;BME280;31721;41.740;-88.000;2023-04-02T02:17:58;99274.17;;;3.55;50.26
45991;BME280;31721;41.740;-88.000;2023-04-02T02:20:29;99279.52;;;3.49;50.37
45991;BME280;31721;41.740;-88.000;2023-04-02T02:23:00;99279.20;;;3.43;50.38
45991;BME280;31721;41.740;-88.000;2023-04-02T02:25:31;99283.11;;;3.41;50.51
45991;BME280;31721;41.740;-88.000;2023-04-02T02:28:04;99284.25;;;3.41;50.73
45991;BME280;31721;41.740;-88.000;2023-04-02T02:30:36;99287.53;;;3.35;50.70
45991;BME280;31721;41.740;-88.000;2023-04-02T02:33:10;99288.86;;;3.39;50.60
45991;BME280;31721;41.740;-88.000;2023-04-02T02:35:45;99287.68;;;3.25;50.65
45991;BME280;31721;41.740;-88.000;2023-04-02T02:38:37;99293.35;;;3.23;50.59
45991;BME280;31721;41.740;-88.000;2023-04-02T02:41:13;99295.97;;;3.34;50.60
45991;BME280;31721;41.740;-88.000;2023-04-02T02:43:52;99295.71;;;3.06;50.70
45991;BME280;31721;41.740;-88.000;2023-04-02T02:46:23;99300.14;;;3.11;50.82
45991;BME280;31721;41.740;-88.000;2023-04-02T02:48:53;99296.40;;;3.06;50.79
45991;BME280;31721;41.740;-88.000;2023-04-02T02:51:28;99293.77;;;3.01;50.63
45991;BME280;31721;41.740;-88.000;2023-04-02T02:53:59;99296.52;;;3.04;50.61
45991;BME280;31721;41.740;-88.000;2023-04-02T02:56:30;99300.27;;;3.07;50.64
45991;BME280;31721;41.740;-88.000;2023-04-02T02:59:03;99300.65;;;2.87;50.67
45991;BME280;31721;41.740;-88.000;2023-04-02T03:01:32;99299.66;;;2.90;50.74
45991;BME280;31721;41.740;-88.000;2023-04-02T03:04:00;99300.21;;;2.91;50.86
45991;BME280;31721;41.740;-88.000;2023-04-02T03:06:28;99299.71;;;2.76;50.84
45991;BME280;31721;41.740;-88.000;2023-04-02T03:09:02;99302.04;;;2.82;51.06
45991;BME280;31721;41.740;-88.000;2023-04-02T03:11:38;99297.86;;;2.80;51.05
45991;BME280;31721;41.740;-88.000;2023-04-02T03:14:17;99298.34;;;2.74;51.01
45991;BME280;31721;41.740;-88.000;2023-04-02T03:16:50;99294.69;;;2.64;50.99
45991;BME280;31721;41.740;-88.000;2023-04-02T03:19:29;99295.27;;;2.55;51.09
45991;BME280;31721;41.740;-88.000;2023-04-02T03:22:03;99289.26;;;2.50;51.29
45991;BME280;31721;41.740;-88.000;2023-04-02T03:24:37;99285.90;;;2.54;51.27
45991;BME280;31721;41.740;-88.000;2023-04-02T03:27:12;99281.53;;;2.49;51.36
45991;BME280;31721;41.740;-88.000;2023-04-02T03:29:45;99285.11;;;2.43;51.46
45991;BME280;31721;41.740;-88.000;2023-04-02T03:32:21;99285.10;;;2.35;51.36
45991;BME280;31721;41.740;-88.000;2023-04-02T03:34:54;99279.23;;;2.34;51.35
45991;BME280;31721;41.740;-88.000;2023-04-02T03:37:26;99278.48;;;2.31;51.29
45991;BME280;31721;41.740;-88.000;2023-04-02T03:39:59;99281.88;;;2.25;51.51
45991;BME280;31721;41.740;-88.000;2023-04-02T03:42:35;99292.97;;;2.31;51.55
45991;BME280;31721;41.740;-88.000;2023-04-02T03:45:11;99297.45;;;2.20;51.62
45991;BME280;31721;41.740;-88.000;2023-04-02T03:47:46;99298.80;;;2.13;51.45
45991;BME280;31721;41.740;-88.000;2023-04-02T03:50:20;99302.03;;;2.06;51.75
45991;BME280;31721;41.740;-88.000;2023-04-02T03:52:50;99304.55;;;2.13;51.70
45991;BME280;31721;41.740;-88.000;2023-04-02T03:55:21;99308.89;;;2.01;51.89
45991;BME280;31721;41.740;-88.000;2023-04-02T03:57:54;99312.15;;;2.01;51.81
45991;BME280;31721;41.740;-88.000;2023-04-02T04:00:31;99317.96;;;1.97;51.90
45991;BME280;31721;41.740;-88.000;2023-04-02T04:03:08;99321.26;;;2.03;52.09
45991;BME280;31721;41.740;-88.000;2023-04-02T04:05:42;99329.63;;;1.95;52.17
45991;BME280;31721;41.740;-88.000;2023-04-02T04:08:15;99338.97;;;1.95;52.27
45991;BME280;31721;41.740;-88.000;2023-04-02T04:10:44;99338.76;;;2.02;52.32
45991;BME280;31721;41.740;-88.000;2023-04-02T04:13:19;99332.30;;;2.02;52.32
45991;BME280;31721;41.740;-88.000;2023-04-02T04:15:51;99320.63;;;2.03;52.32
45991;BME280;31721;41.740;-88.000;2023-04-02T04:18:28;99317.83;;;1.96;52.39
45991;BME280;31721;41.740;-88.000;2023-04-02T04:21:00;99331.83;;;2.02;52.38
45991;BME280;31721;41.740;-88.000;2023-04-02T04:23:31;99343.12;;;1.99;52.51
45991;BME280;31721;41.740;-88.000;2023-04-02T04:26:02;99341.00;;;2.08;52.44
45991;BME280;31721;41.740;-88.000;2023-04-02T04:28:38;99339.13;;;2.01;52.27
45991;BME280;31721;41.740;-88.000;2023-04-02T04:31:15;99337.12;;;1.95;52.41
45991;BME280;31721;41.740;-88.000;2023-04-02T04:33:47;99337.31;;;1.92;52.46
45991;BME280;31721;41.740;-88.000;2023-04-02T04:36:21;99339.34;;;1.84;52.74
45991;BME280;31721;41.740;-88.000;2023-04-02T04:38:51;99343.53;;;1.84;52.79
45991;BME280;31721;41.740;-88.000;2023-04-02T04:41:22;99344.07;;;1.92;52.60
45991;BME280;31721;41.740;-88.000;2023-04-02T04:43:53;99339.85;;;1.99;52.46
45991;BME280;31721;41.740;-88.000;2023-04-02T04:46:26;99337.74;;;1.77;52.46
45991;BME280;31721;41.740;-88.000;2023-04-02T04:48:59;99339.28;;;1.82;52.67
45991;BME280;31721;41.740;-88.000;2023-04-02T04:51:32;99339.06;;;1.71;52.69
45991;BME280;31721;41.740;-88.000;2023-04-02T04:54:03;99341.90;;;1.71;52.77
45991;BME280;31721;41.740;-88.000;2023-04-02T04:56:31;99342.72;;;1.68;52.63
45991;BME280;31721;41.740;-88.000;2023-04-02T04:59:02;99342.50;;;1.65;52.82
45991;BME280;31721;41.740;-88.000;2023-04-02T05:01:36;99339.80;;;1.64;52.77
45991;BME280;31721;41.740;-88.000;2023-04-02T05:04:12;99337.09;;;1.61;52.73
45991;BME280;31721;41.740;-88.000;2023-04-02T05:06:48;99345.94;;;1.63;52.75
45991;BME280;31721;41.740;-88.000;2023-04-02T05:09:22;99349.68;;;1.67;52.57
45991;BME280;31721;41.740;-88.000;2023-04-02T05:11:59;99351.57;;;1.59;52.61
45991;BME280;31721;41.740;-88.000;2023-04-02T05:14:34;99351.38;;;1.54;52.65
45991;BME280;31721;41.740;-88.000;2023-04-02T05:17:06;99345.14;;;1.58;52.75
45991;BME280;31721;41.740;-88.000;2023-04-02T05:19:41;99339.54;;;1.56;52.83
45991;BME280;31721;41.740;-88.000;2023-04-02T05:22:19;99343.27;;;1.48;52.77
45991;BME280;31721;41.740;-88.000;2023-04-02T05:24:57;99346.75;;;1.51;52.77
45991;BME280;31721;41.740;-88.000;2023-04-02T05:27:35;99341.98;;;1.46;52.77
45991;BME280;31721;41.740;-88.000;2023-04-02T05:30:11;99339.89;;;1.39;52.72
45991;BME280;31721;41.740;-88.000;2023-04-02T05:32:44;99337.29;;;1.28;52.83
45991;BME280;31721;41.740;-88.000;2023-04-02T05:35:16;99334.59;;;1.29;53.13
45991;BME280;31721;41.740;-88.000;2023-04-02T05:37:46;99333.60;;;1.35;53.10
45991;BME280;31721;41.740;-88.000;2023-04-02T05:40:21;99325.45;;;1.31;53.20
45991;BME280;31721;41.740;-88.000;2023-04-02T05:42:50;99322.67;;;1.30;53.27
45991;BME280;31721;41.740;-88.000;2023-04-02T05:45:26;99323.31;;;1.31;53.24
45991;BME280;31721;41.740;-88.000;2023-04-02T05:47:57;99326.13;;;1.25;53.18
45991;BME280;31721;41.740;-88.000;2023-04-02T05:50:28;99320.96;;;1.22;53.21
45991;BME280;31721;41.740;-88.000;2023-04-02T05:53:01;99315.13;;;1.22;53.30
45991;BME280;31721;41.740;-88.000;2023-04-02T05:55:38;99311.85;;;1.20;53.42
45991;BME280;31721;41.740;-88.000;2023-04-02T05:58:13;99310.87;;;1.21;53.42
45991;BME280;31721;41.740;-88.000;2023-04-02T06:00:56;99318.61;;;1.17;53.32
45991;BME280;31721;41.740;-88.000;2023-04-02T06:03:30;99330.76;;;1.16;53.44
45991;BME280;31721;41.740;-88.000;2023-04-02T06:06:06;99337.04;;;1.08;53.52
45991;BME280;31721;41.740;-88.000;2023-04-02T06:08:41;99340.37;;;1.12;53.62
45991;BME280;31721;41.740;-88.000;2023-04-02T06:11:15;99344.88;;;1.09;53.58
45991;BME280;31721;41.740;-88.000;2023-04-02T06:13:45;99344.48;;;1.17;53.74
45991;BME280;31721;41.740;-88.000;2023-04-02T06:16:14;99340.75;;;0.94;53.44
45991;BME280;31721;41.740;-88.000;2023-04-02T06:18:43;99341.19;;;0.97;53.75
45991;BME280;31721;41.740;-88.000;2023-04-02T06:21:13;99342.32;;;1.05;53.67
45991;BME280;31721;41.740;-88.000;2023-04-02T06:23:45;99344.20;;;0.97;53.62
45991;BME280;31721;41.740;-88.000;2023-04-02T06:26:21;99349.00;;;0.95;53.78
45991;BME280;31721;41.740;-88.000;2023-04-02T06:28:55;99347.81;;;0.90;53.68
45991;BME280;31721;41.740;-88.000;2023-04-02T06:31:32;99346.36;;;1.03;53.81
45991;BME280;31721;41.740;-88.000;2023-04-02T06:34:03;99343.49;;;0.84;53.66
45991;BME280;31721;41.740;-88.000;2023-04-02T06:36:33;99338.70;;;0.76;53.75
45991;BME280;31721;41.740;-88.000;2023-04-02T06:39:04;99337.13;;;0.80;53.72
45991;BME280;31721;41.740;-88.000;2023-04-02T06:41:34;99336.93;;;0.84;53.91
45991;BME280;31721;41.740;-88.000;2023-04-02T06:44:05;99330.54;;;0.83;53.90
45991;BME280;31721;41.740;-88.000;2023-04-02T06:46:39;99331.69;;;0.87;53.81
45991;BME280;31721;41.740;-88.000;2023-04-02T06:49:16;99330.40;;;0.93;53.85
45991;BME280;31721;41.740;-88.000;2023-04-02T06:51:47;99327.15;;;0.82;53.84
45991;BME280;31721;41.740;-88.000;2023-04-02T06:54:17;99324.41;;;0.78;53.81
45991;BME280;31721;41.740;-88.000;2023-04-02T06:56:46;99327.40;;;0.72;53.69
45991;BME280;31721;41.740;-88.000;2023-04-02T06:59:15;99326.40;;;0.76;53.83
45991;BME280;31721;41.740;-88.000;2023-04-02T07:01:47;99320.14;;;0.63;53.81
45991;BME280;31721;41.740;-88.000;2023-04-02T07:04:18;99314.26;;;0.63;54.01
45991;BME280;31721;41.740;-88.000;2023-04-02T07:06:46;99310.88;;;0.65;54.03
45991;BME280;31721;41.740;-88.000;2023-04-02T07:09:14;99309.99;;;0.65;54.03
45991;BME280;31721;41.740;-88.000;2023-04-02T07:11:41;99306.04;;;0.60;54.14
45991;BME280;31721;41.740;-88.000;2023-04-02T07:14:11;99302.62;;;0.57;54.14
45991;BME280;31721;41.740;-88.000;2023-04-02T07:16:40;99300.53;;;0.55;54.09
45991;BME280;31721;41.740;-88.000;2023-04-02T07:19:16;99303.96;;;0.62;54.08
45991;BME280;31721;41.740;-88.000;2023-04-02T07:21:44;99307.70;;;0.55;54.07
45991;BME280;31721;41.740;-88.000;2023-04-02T07:24:12;99305.38;;;0.59;54.25
45991;BME280;31721;41.740;-88.000;2023-04-02T07:26:40;99301.47;;;0.47;54.15
45991;BME280;31721;41.740;-88.000;2023-04-02T07:29:12;99304.35;;;0.63;54.41
45991;BME280;31721;41.740;-88.000;2023-04-02T07:31:41;99301.47;;;0.48;54.41
45991;BME280;31721;41.740;-88.000;2023-04-02T07:34:09;99290.37;;;0.44;54.35
45991;BME280;31721;41.740;-88.000;2023-04-02T07:36:37;99292.70;;;0.44;54.29
45991;BME280;31721;41.740;-88.000;2023-04-02T07:39:05;99302.18;;;0.39;54.26
45991;BME280;31721;41.740;-88.000;2023-04-02T07:41:33;99295.27;;;0.46;54.37
45991;BME280;31721;41.740;-88.000;2023-04-02T07:44:16;99294.73;;;0.57;54.41
45991;BME280;31721;41.740;-88.000;2023-04-02T07:46:44;99302.02;;;0.56;54.30
45991;BME280;31721;41.740;-88.000;2023-04-02T07:49:11;99314.32;;;0.45;54.22
45991;BME280;31721;41.740;-88.000;2023-04-02T07:51:39;99319.85;;;0.45;54.35
45991;BME280;31721;41.740;-88.000;2023-04-02T07:54:06;99326.36;;;0.36;54.36
45991;BME280;31721;41.740;-88.000;2023-04-02T07:56:35;99333.94;;;0.51;54.37
45991;BME280;31721;41.740;-88.000;2023-04-02T07:59:03;99336.06;;;0.32;54.36
45991;BME280;31721;41.740;-88.000;2023-04-02T08:01:31;99325.45;;;0.38;54.45
45991;BME280;31721;41.740;-88.000;2023-04-02T08:03:59;99320.98;;;0.37;54.49
45991;BME280;31721;41.740;-88.000;2023-04-02T08:06:28;99326.55;;;0.40;54.52
45991;BME280;31721;41.740;-88.000;2023-04-02T08:08:56;99323.67;;;0.41;54.60
45991;BME280;31721;41.740;-88.000;2023-04-02T08:11:24;99319.53;;;0.39;54.46
45991;BME280;31721;41.740;-88.000;2023-04-02T08:13:51;99321.18;;;0.38;54.47
45991;BME280;31721;41.740;-88.000;2023-04-02T08:16:19;99325.03;;;0.36;54.65
45991;BME280;31721;41.740;-88.000;2023-04-02T08:18:47;99331.91;;;0.37;54.61
45991;BME280;31721;41.740;-88.000;2023-04-02T08:21:14;99339.56;;;0.35;54.54
45991;BME280;31721;41.740;-88.000;2023-04-02T08:23:42;99335.18;;;0.36;54.62
45991;BME280;31721;41.740;-88.000;2023-04-02T08:26:16;99328.56;;;0.34;54.60
45991;BME280;31721;41.740;-88.000;2023-04-02T08:28:44;99324.23;;;0.31;54.59
45991;BME280;31721;41.740;-88.000;2023-04-02T08:31:11;99318.78;;;0.26;54.71
45991;BME280;31721;41.740;-88.000;2023-04-02T08:33:39;99319.06;;;0.29;54.74
45991;BME280;31721;41.740;-88.000;2023-04-02T08:36:10;99314.03;;;0.27;54.53
45991;BME280;31721;41.740;-88.000;2023-04-02T08:38:40;99313.53;;;0.34;54.72
45991;BME280;31721;41.740;-88.000;2023-04-02T08:41:15;99314.35;;;0.25;54.64
45991;BME280;31721;41.740;-88.000;2023-04-02T08:43:58;99315.63;;;0.22;54.59
45991;BME280;31721;41.740;-88.000;2023-04-02T08:46:31;99318.01;;;0.19;54.69
45991;BME280;31721;41.740;-88.000;2023-04-02T08:49:02;99322.21;;;0.16;54.75
45991;BME280;31721;41.740;-88.000;2023-04-02T08:51:34;99325.04;;;0.15;54.84
45991;BME280;31721;41.740;-88.000;2023-04-02T08:54:06;99328.52;;;0.13;54.79
45991;BME280;31721;41.740;-88.000;2023-04-02T08:56:41;99320.98;;;0.01;54.78
45991;BME280;31721;41.740;-88.000;2023-04-02T08:59:19;99311.36;;;0.13;54.89
45991;BME280;31721;41.740;-88.000;2023-04-02T09:01:55;99308.43;;;0.12;54.88
45991;BME280;31721;41.740;-88.000;2023-04-02T09:04:27;99317.09;;;-0.06;55.02
45991;BME280;31721;41.740;-88.000;2023-04-02T09:06:56;99314.33;;;0.01;55.03
45991;BME280;31721;41.740;-88.000;2023-04-02T09:09:26;99312.15;;;0.10;55.11
45991;BME280;31721;41.740;-88.000;2023-04-02T09:11:56;99306.23;;;0.00;55.00
45991;BME280;31721;41.740;-88.000;2023-04-02T09:14:30;99304.50;;;-0.01;55.01
45991;BME280;31721;41.740;-88.000;2023-04-02T09:17:02;99301.79;;;0.06;55.10
45991;BME280;31721;41.740;-88.000;2023-04-02T09:19:33;99298.72;;;0.16;55.17
45991;BME280;31721;41.740;-88.000;2023-04-02T09:22:06;99291.41;;;0.06;55.21
45991;BME280;31721;41.740;-88.000;2023-04-02T09:24:35;99287.59;;;0.05;55.15
45991;BME280;31721;41.740;-88.000;2023-04-02T09:27:03;99285.91;;;0.02;55.12
45991;BME280;31721;41.740;-88.000;2023-04-02T09:29:39;99284.02;;;0.05;55.34
45991;BME280;31721;41.740;-88.000;2023-04-02T09:32:20;99289.18;;;0.07;55.29
45991;BME280;31721;41.740;-88.000;2023-04-02T09:34:49;99301.43;;;0.06;55.20
45991;BME280;31721;41.740;-88.000;2023-04-02T09:37:19;99305.08;;;0.04;55.20
45991;BME280;31721;41.740;-88.000;2023-04-02T09:39:47;99304.91;;;0.03;55.23
45991;BME280;31721;41.740;-88.000;2023-04-02T09:42:29;99306.51;;;0.06;55.41
45991;BME280;31721;41.740;-88.000;2023-04-02T09:45:13;99304.45;;;0.08;55.49
45991;BME280;31721;41.740;-88.000;2023-04-02T09:47:41;99302.49;;;0.10;55.40
45991;BME280;31721;41.740;-88.000;2023-04-02T09:50:21;99305.56;;;0.02;55.42
45991;BME280;31721;41.740;-88.000;2023-04-02T09:52:51;99309.27;;;0.02;55.50
45991;BME280;31721;41.740;-88.000;2023-04-02T09:55:22;99315.56;;;-0.05;55.52
45991;BME280;31721;41.740;-88.000;2023-04-02T09:57:50;99319.36;;;0.05;55.64
45991;BME280;31721;41.740;-88.000;2023-04-02T10:00:32;99322.24;;;-0.12;55.46
45991;BME280;31721;41.740;-88.000;2023-04-02T10:03:02;99322.68;;;-0.12;55.49
45991;BME280;31721;41.740;-88.000;2023-04-02T10:05:32;99319.30;;;0.06;55.50
45991;BME280;31721;41.740;-88.000;2023-04-02T10:08:17;99319.56;;;0.04;55.41
45991;BME280;31721;41.740;-88.000;2023-04-02T10:10:47;99317.52;;;0.03;55.44
45991;BME280;31721;41.740;-88.000;2023-04-02T10:13:21;99313.71;;;0.02;55.39
45991;BME280;31721;41.740;-88.000;2023-04-02T10:15:56;99321.01;;;0.03;55.43
45991;BME280;31721;41.740;-88.000;2023-04-02T10:18:35;99325.87;;;0.01;55.50
45991;BME280;31721;41.740;-88.000;2023-04-02T10:21:05;99326.40;;;0.02;55.49
45991;BME280;31721;41.740;-88.000;2023-04-02T10:23:34;99325.97;;;0.03;55.53
45991;BME280;31721;41.740;-88.000;2023-04-02T10:26:16;99324.02;;;-0.01;55.47
45991;BME280;31721;41.740;-88.000;2023-04-02T10:29:01;99318.05;;;0.00;55.50
45991;BME280;31721;41.740;-88.000;2023-04-02T10:31:35;99316.39;;;-0.09;55.54
45991;BME280;31721;41.740;-88.000;2023-04-02T10:34:18;99319.75;;;-0.09;55.48
45991;BME280;31721;41.740;-88.000;2023-04-02T10:36:50;99324.48;;;-0.03;55.44
45991;BME280;31721;41.740;-88.000;2023-04-02T10:39:21;99322.83;;;-0.21;55.35
45991;BME280;31721;41.740;-88.000;2023-04-02T10:41:54;99315.14;;;-0.05;55.49
45991;BME280;31721;41.740;-88.000;2023-04-02T10:44:33;99313.99;;;-0.05;55.39
45991;BME280;31721;41.740;-88.000;2023-04-02T10:47:10;99313.83;;;-0.04;55.43
45991;BME280;31721;41.740;-88.000;2023-04-02T10:49:48;99319.06;;;-0.02;55.36
45991;BME280;31721;41.740;-88.000;2023-04-02T10:52:20;99315.06;;;-0.04;55.43
45991;BME280;31721;41.740;-88.000;2023-04-02T10:54:49;99311.06;;;-0.02;55.46
45991;BME280;31721;41.740;-88.000;2023-04-02T10:57:30;99303.44;;;-0.04;55.49
45991;BME280;31721;41.740;-88.000;2023-04-02T11:00:06;99298.45;;;-0.06;55.49
45991;BME280;31721;41.740;-88.000;2023-04-02T11:02:45;99294.25;;;-0.08;55.51
45991;BME280;31721;41.740;-88.000;2023-04-02T11:05:21;99294.84;;;-0.09;55.60
45991;BME280;31721;41.740;-88.000;2023-04-02T11:07:55;99290.82;;;-0.07;55.77
45991;BME280;31721;41.740;-88.000;2023-04-02T11:10:25;99281.52;;;-0.08;55.69
45991;BME280;31721;41.740;-88.000;2023-04-02T11:12:58;99278.56;;;-0.11;55.72
45991;BME280;31721;41.740;-88.000;2023-04-02T11:15:29;99280.08;;;-0.18;55.74
45991;BME280;31721;41.740;-88.000;2023-04-02T11:17:57;99273.13;;;-0.13;55.62
45991;BME280;31721;41.740;-88.000;2023-04-02T11:20:59;99274.01;;;-0.09;55.91
45991;BME280;31721;41.740;-88.000;2023-04-02T11:23:34;99277.46;;;-0.09;56.03
45991;BME280;31721;41.740;-88.000;2023-04-02T11:26:37;99279.67;;;-0.07;55.94
45991;BME280;31721;41.740;-88.000;2023-04-02T11:29:14;99280.04;;;-0.03;55.92
45991;BME280;31721;41.740;-88.000;2023-04-02T11:31:43;99279.87;;;-0.13;55.93
45991;BME280;31721;41.740;-88.000;2023-04-02T11:34:14;99277.72;;;-0.04;55.93
45991;BME280;31721;41.740;-88.000;2023-04-02T11:37:31;99279.55;;;-0.08;56.26
45991;BME280;31721;41.740;-88.000;2023-04-02T11:40:01;99284.30;;;-0.06;56.03
45991;BME280;31721;41.740;-88.000;2023-04-02T11:42:31;99288.38;;;-0.06;56.12
45991;BME280;31721;41.740;-88.000;2023-04-02T11:45:51;99289.14;;;-0.11;56.13
45991;BME280;31721;41.740;-88.000;2023-04-02T11:48:28;99292.29;;;-0.10;56.32
45991;BME280;31721;41.740;-88.000;2023-04-02T11:50:56;99297.24;;;-0.08;56.39
45991;BME280;31721;41.740;-88.000;2023-04-02T11:53:30;99295.18;;;-0.28;56.48
45991;BME280;31721;41.740;-88.000;2023-04-02T11:56:37;99289.35;;;-0.23;56.66
45991;BME280;31721;41.740;-88.000;2023-04-02T11:59:15;99289.51;;;-0.26;56.81
45991;BME280;31721;41.740;-88.000;2023-04-02T12:01:58;99289.04;;;-0.35;56.90
45991;BME280;31721;41.740;-88.000;2023-04-02T12:04:58;99289.72;;;-0.22;57.13
45991;BME280;31721;41.740;-88.000;2023-04-02T12:07:38;99281.33;;;-0.34;56.91
45991;BME280;31721;41.740;-88.000;2023-04-02T12:10:16;99283.89;;;-0.50;57.00
45991;BME280;31721;41.740;-88.000;2023-04-02T12:12:45;99287.81;;;-0.61;57.66
45991;BME280;31721;41.740;-88.000;2023-04-02T12:15:31;99289.58;;;-0.39;57.45
45991;BME280;31721;41.740;-88.000;2023-04-02T12:18:14;99293.74;;;-0.59;58.08
45991;BME280;31721;41.740;-88.000;2023-04-02T12:20:47;99310.15;;;-0.40;57.75
45991;BME280;31721;41.740;-88.000;2023-04-02T12:23:18;99312.57;;;-0.56;58.17
45991;BME280;31721;41.740;-88.000;2023-04-02T12:25:54;99304.22;;;-0.43;58.10
45991;BME280;31721;41.740;-88.000;2023-04-02T12:28:23;99309.11;;;-0.48;58.32
45991;BME280;31721;41.740;-88.000;2023-04-02T12:31:02;99306.58;;;-0.53;58.62
45991;BME280;31721;41.740;-88.000;2023-04-02T12:33:32;99305.41;;;-0.21;58.49
45991;BME280;31721;41.740;-88.000;2023-04-02T12:36:02;99305.25;;;0.07;57.80
45991;BME280;31721;41.740;-88.000;2023-04-02T12:38:34;99299.33;;;-0.20;58.45
45991;BME280;31721;41.740;-88.000;2023-04-02T12:41:04;99300.29;;;0.06;58.37
45991;BME280;31721;41.740;-88.000;2023-04-02T12:43:34;99294.48;;;-0.07;58.23
45991;BME280;31721;41.740;-88.000;2023-04-02T12:46:04;99292.39;;;0.04;58.43
45991;BME280;31721;41.740;-88.000;2023-04-02T12:48:35;99291.38;;;0.00;58.28
45991;BME280;31721;41.740;-88.000;2023-04-02T12:51:03;99293.07;;;-0.31;58.82
45991;BME280;31721;41.740;-88.000;2023-04-02T12:53:35;99293.03;;;0.11;58.45
45991;BME280;31721;41.740;-88.000;2023-04-02T12:56:04;99290.72;;;0.25;58.39
45991;BME280;31721;41.740;-88.000;2023-04-02T12:58:37;99289.83;;;0.36;58.40
45991;BME280;31721;41.740;-88.000;2023-04-02T13:01:16;99285.49;;;0.51;58.24
45991;BME280;31721;41.740;-88.000;2023-04-02T13:03:59;99275.72;;;0.37;58.50
45991;BME280;31721;41.740;-88.000;2023-04-02T13:06:28;99269.83;;;0.60;58.32
45991;BME280;31721;41.740;-88.000;2023-04-02T13:08:56;99266.00;;;0.44;58.92
45991;BME280;31721;41.740;-88.000;2023-04-02T13:11:34;99270.88;;;0.19;58.70
45991;BME280;31721;41.740;-88.000;2023-04-02T13:14:03;99276.08;;;0.70;58.46
45991;BME280;31721;41.740;-88.000;2023-04-02T13:16:35;99279.99;;;0.23;59.03
45991;BME280;31721;41.740;-88.000;2023-04-02T13:19:26;99284.53;;;0.17;59.46
45991;BME280;31721;41.740;-88.000;2023-04-02T13:21:56;99283.75;;;0.71;58.79